AIRPORT_AIRPORT_METAR
METAR FOR EDDC
ADDS - METARS form results

(0005 UTC 06 December 2019)
Data provider http://aviationweather.gov/metar/data/
 
METAR text: EDDC 052350Z 16011KT CAVOK M01/M04 Q1017
Conditions at: EDDC (DRESDEN/KLOTZSCH, DE) observed 2350 UTC 05 December 2019
Temperature: -1.0°C (30°F)
Dewpoint: -4.0°C (25°F) [RH = 80%]
Pressure (altimeter): 30.03 inches Hg (1017.0 mb)
Winds: from the SSE (160 degrees) at 13 MPH (11 knots; 5.7 m/s)
Visibility: 6 or more miles (10+ km)
Ceiling: ceiling and visibility are OK
Clouds: unknown
Weather: no significant weather observed at this time

METAR text: EDDC 052320Z 16009KT CAVOK M01/M04 Q1018
Conditions at: EDDC (DRESDEN/KLOTZSCH, DE) observed 2320 UTC 05 December 2019
Temperature: -1.0°C (30°F)
Dewpoint: -4.0°C (25°F) [RH = 80%]
Pressure (altimeter): 30.06 inches Hg (1018.0 mb)
Winds: from the SSE (160 degrees) at 10 MPH (9 knots; 4.6 m/s)
Visibility: 6 or more miles (10+ km)
Ceiling: ceiling and visibility are OK
Clouds: unknown
Weather: no significant weather observed at this time

Forecast for: EDDC (DRESDEN/KLOTZSCH, DE)
Text: TAF EDDC 052300Z 0600/0624 15015KT CAVOK
Forecast period: 0000 to 0100 UTC 06 December 2019
Forecast type: FROM: standard forecast or significant change
Winds: from the SSE (150 degrees) at 17 MPH (15 knots; 7.7 m/s)
Visibility: 6 or more miles 10+ km)
Ceiling: unknown
Clouds: missing
Weather: NSW  (no significant weather)
Text: BECMG 0601/0604 21015KT
Forecast period: 0100 UTC 06 December 2019 to 0000 UTC 07 December 2019
Forecast type: BECOMING: Conditions expected to become as follows by 0400 UTC 06 December 2019
Winds: from the SSW (210 degrees) at 17 MPH (15 knots; 7.7 m/s)
Visibility: 6 or more miles 10+ km)
Ceiling: unknown
Clouds: missing
Weather: NSW  (no significant weather)
Text: TEMPO 0620/0624 21015G25KT
Forecast period: 2000 UTC 06 December 2019 to 0000 UTC 07 December 2019
Forecast type: TEMPORARY: The following changes expected for less than half the time period
Winds: from the SSW (210 degrees) at 17 MPH (15 knots; 7.7 m/s)
gusting to 29 MPH (25 knots; 12.9 m/s)
Visibility: missing
Ceiling: unknown
Clouds: missing
Weather: no significant weather forecast for this period

 AIRPORT_AIRPORT_MAP

 AIRPORT_RUNWAY_INFO
AIRPORT_RUNWAY 04 AIRPORT_RUNWAY_LENGTH 8228 ft AIRPORT_RUNWAY_WIDTH 167 ft
AIRPORT_RUNWAY_ELEVATION 755 ft AIRPORT_RUNWAY_THRESHOLD 0 ft AIRPORT_RUNWAY_HEADING 41
AIRPORT_RUNWAY 22 AIRPORT_RUNWAY_LENGTH 8228 ft AIRPORT_RUNWAY_WIDTH 167 ft
AIRPORT_RUNWAY_ELEVATION 703 ft AIRPORT_RUNWAY_THRESHOLD